RESULTS

PRE-SEASON

MRETT1
Position Team Name Time Riders Average w/kg Average Watts Time  Gap
1 Rasio Racing 20:37.7 5/6 4.05 300  
2 Lous’ Team 20:48.6 3/5 3.64 306 00:00:11
3 Sherbeast 20:50.9 3/6 4.04 299 00:00:13
4 DIRTy Dishes 21:14.5 4/4 4.22 305 00:00:37
5 TTTTTTTT 21:54.7 3/3 3.82 292 00:01:17
6 Tricky Allsorts 21:55.2 4/4 4.24 302 00:01:18
7 Eat Dirt 22:00.1 4/6 3.58 255 00:01:22
8 Westerley CC 22:29.7 3/5 3.36 264 00:01:52
9 Coatbridge Clario 22:32.9 5/6 3.32 263 00:01:55
10 Testers & Tracers 22:40.2 3/6 3.39 247 00:02:03
11 Nicks am eater TT 22:44.2 3/3 4.10 331 00:02:06
12 BC racing 23:00.7 3/4 3.70 262 00:02:23
13 WCC 23:07.0 3/3 3.34 269 00:02:29
14 OTR e-racing 23:10.0 3/4 3.13 238 00:02:32
15 Team Raptor 23:25.9 5/6 3.03 231 00:02:48
16 Feisty Turtles 26:14.7 4/4 2.61 192 00:05:37
MRETT2
Position Team Name Time Riders Average W/kg Average Watts Time  Behind
1 Rasio Racing 33:01.3 5/6 3.82 283  
2 Sherbeast 33:05.3 5/5 4.14 304 00:00:04
3 Lous team 33:52.1 4/5 3.30 266 00:00:51
4 tttttttt 33:52.4 3/4 3.88 285 00:00:51
5 Nick’s Am Eater 33:59.2 3/3 3.90 306 00:00:58
6 Trickys Allsorts 34:13.6 3/5 3.79 265 00:01:12
7 Testers & Tracers 34:26.2 3/4 3.66 281 00:01:25
8 Eat DIRT 34:46.4 5/5 3.53 256 00:01:45
9 OTR e-racing 34:56.8 5/6 3.41 262 00:01:56
10 Coatbridge Clarion 35:16.1 4/4 3.23 267 00:02:15
11 BC Racing 35:28.9 3/5 3.53 251 00:02:28
12 Westerly CC 35:41.6 4/5 3.16 250 00:02:40
13 Eat Dirt 2 38:56.3 3/6 2.56 205 00:05:55
14 Team Raptor 39:19.1 3/4 2.93 245 00:06:18
15 Feisty Turtles 43:44.0 3/3 2.21 152 00:10:43
MRETT3
Position Team Name Time Riders Average W/kg Average Watts Time  Behind
1 Rasio Racing 36:40.509 5/6 3.89 288  
2 Team Lou 36:41.172 4/6 3.54 288 00:00.663
3 Sherbeast 37:01.268 4/6 4.02 289 00:20.759
4 Pocomotion 37:22.353 4/5 3.78 305 00:41.844
5 tttttttt 37:58.867 3/4 3.77 282 01:18.358
6 DIRTy Dishes 38:00.192 3/4 3.7625 292.25 01:19.683
7 Testers & Tracers 38:59.472 3/5 3.6552 266.2 02:18.963
8 Trickys  Allsorts 39:05.137 3/4 4.00975 285 02:24.628
9 OTR e-racing 39:49.923 5/6 3.51 256 03:09.414
10 BC Racing 39:53.791 4/5 3.5472 252.4 03:13.282
11 COATBRIDGE CLARION 39:57.665 5/5 3.1008 271.8 03:17.156
12 Gordich Utd 40:24.686 4/4 3.60 253 03:44.177
13 TEAM RAPTOR 40:24.697 5/5 2.99 247 03:44.188
14 WCC 40:55.642 3/3 3.200666667 257.3333333 04:15.133
15 Westerley CC 42:05.888 4/4 2.85 228 05:25.379
16 Feisty Turtles 48:00.848 4/4 2.25225 166 11:20.339
MRETT4

No Results Yet

ABOUT

Magic Roads Events is pleased to introduce a brand new weekly team trial event to the RGT Cycling platform starting November 2020.

Each week, teams of three to six riders will compete on (in)famous time trial routes from around the world.

For the first six weeks teams will be able to compete at anytime they want, from Monday to Sunday.

There is no need for manual countdowns, no need to plan several days in advance. Just grab your teammates and go.

Each team will ride on a private server in order to avoid interference from other riders. If you do not have a premium account then you can activate a two week free trial.

For the first six weeks each race will be a straight up fight for the fastest time. Trust us, this won’t be a straight power parade, those teams that master the drafting dynamics of RGT will have a big advantage.

Current Event – MRETT4

Details

  • Course – Valletta, Malta
  • Magic Road Code – FLRrLWUE270v
  • Number of Laps – 1
  • Event Code – MRETT4
  • Start – Monday 00:01am GMT
  • Finish – Sunday 11:59pm GMT

Event Naming

Please take care to read the following carefully, this must be done correctly so we can find your times:

  1. Participating teams must create their own race event on the RGT App between the allocated start and finish dates
  2. The event should be named “MRETT# TEAM NAME”
  3. The # should be replaced with the event number supplied by the event organizer.

E.G “MRETT1 My New TT Team”

RULEs

  1. Teams must be a minimum or three and a maximum of six riders
  2. The time will be taken on the 3rd rider over the line
  3. Please ensure riders have entered their correct weight and their equipment is calibrated. One rider issue may result in the entire team being DQ’d
  4. Heart rate meters are advised but not mandatory
  5. As per the RGT terms of use, we reserve the right to ask for validation information
  6. Teams must start as a team. On lap courses, if a rider is dropped from the team, they must not re-join their team later in the race
  7. MRE reserves the right, as the Team Time Trial organiser, to remove or disqualify any rider or team that does not meet the above criteria and that would not be considered in the spirit of sportsmanship
  8. Teams can make multiple attempts each week if they wish